Time;durP1;ratioP1;P1;durP2;ratioP2;P2;SDS_P1;SDS_P2;PMS_P1;PMS_P2;Temp;Humidity;BMP_temperature;BMP_pressure;BME280_temperature;BME280_humidity;BME280_pressure;Samples;Min_cycle;Max_cycle;Signal;HPM_P1;HPM_P2
2022/07/19 00:02:03;;;;;;;3.17;0.85;;;23.00;71.00;;;;;;4956447;28;20475;-86
2022/07/19 00:04:29;;;;;;;2.63;1.08;;;23.00;71.10;;;;;;4953193;28;20027;-85
2022/07/19 00:07:02;;;;;;;2.78;1.00;;;23.00;71.20;;;;;;4957158;28;20403;-85
2022/07/19 00:09:28;;;;;;;1.48;0.80;;;22.90;71.60;;;;;;4975571;28;20027;-85
2022/07/19 00:11:54;;;;;;;3.72;1.13;;;22.90;71.70;;;;;;4975676;28;20025;-86
2022/07/19 00:14:20;;;;;;;2.45;0.98;;;22.80;71.80;;;;;;4956613;28;20070;-86
2022/07/19 00:16:46;;;;;;;2.78;0.88;;;22.80;72.00;;;;;;4956053;28;20031;-86
2022/07/19 00:19:12;;;;;;;3.55;0.90;;;22.70;72.40;;;;;;4956315;28;20479;-86
2022/07/19 00:21:38;;;;;;;3.53;1.10;;;22.70;73.20;;;;;;4971886;28;20023;-86
2022/07/19 00:24:03;;;;;;;3.00;1.27;;;22.70;72.60;;;;;;4972881;28;20038;-85
2022/07/19 00:26:29;;;;;;;2.20;1.00;;;22.60;72.70;;;;;;4953739;28;20031;-86
2022/07/19 00:28:56;;;;;;;1.92;0.82;;;22.60;72.80;;;;;;4955398;28;20122;-85
2022/07/19 00:31:25;;;;;;;2.63;1.23;;;22.60;73.20;;;;;;4973571;28;20495;-86
2022/07/19 00:33:51;;;;;;;1.75;0.88;;;22.50;73.40;;;;;;4957589;28;20034;-85
2022/07/19 00:36:17;;;;;;;3.30;1.10;;;22.50;73.60;;;;;;4952597;28;20027;-86
2022/07/19 00:38:42;;;;;;;1.63;0.90;;;22.40;73.60;;;;;;4951792;28;20081;-86
2022/07/19 00:41:08;;;;;;;1.08;0.70;;;22.40;73.80;;;;;;4954027;28;20023;-86
2022/07/19 00:43:34;;;;;;;1.85;0.98;;;22.30;72.80;;;;;;4960227;28;20146;-86
2022/07/19 00:45:59;;;;;;;1.33;0.75;;;22.20;73.10;;;;;;4955726;28;20384;-86
2022/07/19 00:48:25;;;;;;;2.58;1.00;;;22.20;73.60;;;;;;4955984;28;20038;-85
2022/07/19 00:50:51;;;;;;;1.67;0.75;;;22.20;73.80;;;;;;4954094;28;20038;-85
2022/07/19 00:53:18;;;;;;;2.45;1.20;;;22.20;73.80;;;;;;4953548;28;20110;-86
2022/07/19 00:55:45;;;;;;;2.63;1.08;;;22.20;73.60;;;;;;4972886;28;20030;-85
2022/07/19 00:58:13;;;;;;;3.38;1.08;;;22.20;73.60;;;;;;4952963;28;20023;-85
2022/07/19 01:00:40;;;;;;;4.93;1.02;;;22.20;73.60;;;;;;4953622;28;20134;-85
2022/07/19 01:03:08;;;;;;;4.57;1.00;;;22.20;73.60;;;;;;4970520;28;20140;-85
2022/07/19 01:05:33;;;;;;;2.80;0.90;;;22.10;73.70;;;;;;4951765;28;20027;-85
2022/07/19 01:07:59;;;;;;;2.40;1.02;;;22.10;73.50;;;;;;4970619;28;20027;-85
2022/07/19 01:10:26;;;;;;;2.42;0.93;;;22.10;73.60;;;;;;4955836;28;20039;-85
2022/07/19 01:12:52;;;;;;;2.08;1.00;;;22.00;73.80;;;;;;4954528;28;20082;-85
2022/07/19 01:15:21;;;;;;;2.17;0.80;;;22.00;74.10;;;;;;4973204;28;20018;-85
2022/07/19 01:17:50;;;;;;;2.40;1.00;;;22.00;74.10;;;;;;4954564;28;20031;-85
2022/07/19 01:20:16;;;;;;;1.85;0.80;;;21.90;73.80;;;;;;4956657;28;20054;-86
2022/07/19 01:22:43;;;;;;;2.08;0.60;;;21.90;74.50;;;;;;4970148;28;20023;-86
2022/07/19 01:25:09;;;;;;;1.92;0.70;;;21.90;74.40;;;;;;4953380;28;20109;-86
2022/07/19 01:27:43;;;;;;;3.78;1.33;;;21.80;74.30;;;;;;4972805;28;20114;-86
2022/07/19 01:30:20;;;;;;;2.28;0.95;;;21.80;74.30;;;;;;4953825;28;20058;-86
2022/07/19 01:32:47;;;;;;;1.95;0.73;;;21.70;74.50;;;;;;4951899;28;20109;-85
2022/07/19 01:35:13;;;;;;;1.98;1.00;;;21.70;74.90;;;;;;4971985;28;20031;-86
2022/07/19 01:37:39;;;;;;;1.95;0.88;;;21.70;75.00;;;;;;4972581;28;20023;-86
2022/07/19 01:40:08;;;;;;;2.33;1.00;;;21.70;75.20;;;;;;4954860;28;20030;-85
2022/07/19 01:42:52;;;;;;;2.38;1.00;;;21.60;75.50;;;;;;4969359;28;20137;-85
2022/07/19 01:45:19;;;;;;;3.22;1.23;;;21.50;75.50;;;;;;4962705;28;20034;-86
2022/07/19 01:47:45;;;;;;;2.80;0.80;;;21.60;75.40;;;;;;4953262;28;20042;-86
2022/07/19 01:50:13;;;;;;;10.57;1.05;;;21.50;75.30;;;;;;4952128;28;20027;-85
2022/07/19 01:52:39;;;;;;;2.35;0.80;;;21.50;75.30;;;;;;4972435;28;20019;-85
2022/07/19 01:55:05;;;;;;;1.70;0.75;;;21.50;75.50;;;;;;4952978;28;20019;-86
2022/07/19 01:57:32;;;;;;;1.73;0.70;;;21.50;75.40;;;;;;4971274;28;20102;-86
2022/07/19 01:59:57;;;;;;;1.80;0.60;;;21.50;75.60;;;;;;4950913;28;20504;-86
2022/07/19 02:02:23;;;;;;;1.67;0.75;;;21.40;75.60;;;;;;4971343;28;20049;-85
2022/07/19 02:04:49;;;;;;;1.95;0.90;;;21.30;75.60;;;;;;4971449;28;20043;-85
2022/07/19 02:07:14;;;;;;;1.52;0.60;;;21.30;76.40;;;;;;4955783;28;20109;-85
2022/07/19 02:09:40;;;;;;;1.73;0.70;;;21.30;75.70;;;;;;4971681;28;20031;-85
2022/07/19 02:12:06;;;;;;;2.72;0.88;;;21.30;76.40;;;;;;4950347;28;20074;-86
2022/07/19 02:14:32;;;;;;;2.33;0.85;;;21.30;76.00;;;;;;4973135;28;20046;-86
2022/07/19 02:16:57;;;;;;;2.90;1.00;;;21.20;76.00;;;;;;4953303;28;20463;-86
2022/07/19 02:19:26;;;;;;;1.95;0.70;;;21.20;76.00;;;;;;4953828;28;20034;-86
2022/07/19 02:21:51;;;;;;;2.17;0.77;;;21.20;75.90;;;;;;4971906;28;20031;-85
2022/07/19 02:24:17;;;;;;;2.22;0.90;;;21.10;76.30;;;;;;4952245;28;20031;-85
2022/07/19 02:26:43;;;;;;;1.70;0.95;;;21.10;76.30;;;;;;4948361;28;20046;-85
2022/07/19 02:29:09;;;;;;;1.70;0.75;;;21.10;76.30;;;;;;4954072;28;20110;-85
2022/07/19 02:31:35;;;;;;;1.27;0.80;;;21.10;76.20;;;;;;4952555;28;20419;-85
2022/07/19 02:34:00;;;;;;;1.73;0.55;;;21.00;76.30;;;;;;4957825;28;20031;-85
2022/07/19 02:36:26;;;;;;;2.85;0.90;;;21.00;76.30;;;;;;4970343;28;20551;-87
2022/07/19 02:38:52;;;;;;;2.42;0.80;;;21.00;76.10;;;;;;4952779;28;20031;-86
2022/07/19 02:41:17;;;;;;;1.67;0.85;;;20.90;76.40;;;;;;4950347;28;20391;-85
2022/07/19 02:43:43;;;;;;;1.75;0.70;;;20.90;76.50;;;;;;4954478;28;20027;-85
2022/07/19 02:46:08;;;;;;;2.40;0.93;;;20.90;76.80;;;;;;4968911;28;20035;-85
2022/07/19 02:48:34;;;;;;;2.63;1.10;;;20.90;76.50;;;;;;4950230;28;20027;-85
2022/07/19 02:51:00;;;;;;;2.25;0.73;;;20.80;76.70;;;;;;4968648;28;20019;-85
2022/07/19 02:53:25;;;;;;;2.10;0.90;;;20.80;77.00;;;;;;4968385;28;20068;-85
2022/07/19 02:55:51;;;;;;;2.33;1.10;;;20.80;77.00;;;;;;4967360;28;20476;-85
2022/07/19 02:58:17;;;;;;;1.85;0.90;;;20.80;77.00;;;;;;4953258;28;20125;-85
2022/07/19 03:00:43;;;;;;;1.85;0.60;;;20.80;76.90;;;;;;4970403;28;20023;-85
2022/07/19 03:05:53;;;;;;;2.45;0.70;;;20.70;77.00;;;;;;4969183;28;20158;-85
2022/07/19 03:08:18;;;;;;;2.00;0.75;;;20.70;77.00;;;;;;4954993;28;20114;-85
2022/07/19 03:10:44;;;;;;;2.15;0.60;;;20.60;77.00;;;;;;4948076;28;20035;-86
2022/07/19 03:13:10;;;;;;;4.40;0.80;;;20.60;77.10;;;;;;4954491;28;20038;-85
2022/07/19 03:15:36;;;;;;;2.03;0.73;;;20.60;77.30;;;;;;4953113;28;20022;-85
2022/07/19 03:18:03;;;;;;;1.98;0.70;;;20.60;77.30;;;;;;4969110;28;20938;-85
2022/07/19 03:20:28;;;;;;;1.75;0.70;;;20.60;77.20;;;;;;4951263;28;20031;-86
2022/07/19 03:22:54;;;;;;;2.15;0.90;;;20.50;77.30;;;;;;4955408;28;20476;-85
2022/07/19 03:25:20;;;;;;;2.00;0.88;;;20.50;77.10;;;;;;4976800;28;20081;-85
2022/07/19 03:27:45;;;;;;;1.73;0.80;;;20.50;77.20;;;;;;4957628;28;20030;-85
2022/07/19 03:30:11;;;;;;;0.88;0.45;;;20.40;77.10;;;;;;4957385;28;20033;-85
2022/07/19 03:32:37;;;;;;;2.17;0.90;;;20.40;77.30;;;;;;4970932;28;20019;-85
2022/07/19 03:35:02;;;;;;;3.33;0.80;;;20.50;77.40;;;;;;4973980;28;20030;-85
2022/07/19 03:37:28;;;;;;;2.55;0.63;;;20.40;77.30;;;;;;4956056;28;20055;-85
2022/07/19 03:39:54;;;;;;;2.97;1.08;;;20.50;77.50;;;;;;4956672;28;20042;-85
2022/07/19 03:42:19;;;;;;;1.90;0.70;;;20.40;77.60;;;;;;4972366;28;20027;-85
2022/07/19 03:44:45;;;;;;;2.35;0.80;;;20.40;77.60;;;;;;4968163;28;20381;-85
2022/07/19 03:47:10;;;;;;;1.70;0.65;;;20.40;77.90;;;;;;4973709;28;20110;-85
2022/07/19 03:49:36;;;;;;;2.15;0.80;;;20.40;77.80;;;;;;4954708;28;20429;-85
2022/07/19 03:52:02;;;;;;;3.13;0.90;;;20.40;77.90;;;;;;4955552;28;20736;-86
2022/07/19 03:54:27;;;;;;;2.50;0.80;;;20.30;78.20;;;;;;4973216;28;20071;-85
2022/07/19 03:56:55;;;;;;;1.83;0.73;;;20.40;77.60;;;;;;4973897;28;20027;-86
2022/07/19 03:59:22;;;;;;;2.42;0.80;;;20.30;77.60;;;;;;4973545;28;20022;-85
2022/07/19 04:01:48;;;;;;;1.77;0.70;;;20.30;77.80;;;;;;4974496;28;20439;-85
2022/07/19 04:04:14;;;;;;;1.95;0.93;;;20.30;78.00;;;;;;4959401;28;20241;-85
2022/07/19 04:06:40;;;;;;;2.40;0.90;;;20.40;77.90;;;;;;4954258;28;20118;-85
2022/07/19 04:09:06;;;;;;;2.25;1.10;;;20.40;77.90;;;;;;4956912;28;20030;-85
2022/07/19 04:11:31;;;;;;;2.38;0.70;;;20.40;78.30;;;;;;4950286;28;20534;-85
2022/07/19 04:13:57;;;;;;;2.13;0.80;;;20.30;78.60;;;;;;4951936;28;20463;-85
2022/07/19 04:16:23;;;;;;;1.55;0.70;;;20.40;78.40;;;;;;4951822;28;20030;-85
2022/07/19 04:18:48;;;;;;;1.67;0.80;;;20.30;78.60;;;;;;4955768;28;20031;-85
2022/07/19 04:21:14;;;;;;;3.85;0.90;;;20.30;78.50;;;;;;4955903;28;20121;-85
2022/07/19 04:23:40;;;;;;;1.40;0.80;;;20.30;78.00;;;;;;4954106;28;20140;-85
2022/07/19 04:26:05;;;;;;;1.58;0.73;;;20.30;78.20;;;;;;4972680;28;20058;-85
2022/07/19 04:28:31;;;;;;;1.75;0.70;;;20.30;78.70;;;;;;4972537;28;20113;-85
2022/07/19 04:30:57;;;;;;;2.42;0.85;;;20.40;78.60;;;;;;4953926;28;20026;-85
2022/07/19 04:33:22;;;;;;;1.33;0.77;;;20.40;78.60;;;;;;4970662;28;20058;-85
2022/07/19 04:35:48;;;;;;;1.77;0.52;;;20.50;78.70;;;;;;4953628;28;20039;-86
2022/07/19 04:38:15;;;;;;;2.08;0.98;;;20.50;78.40;;;;;;4967200;28;20039;-85
2022/07/19 04:40:40;;;;;;;3.10;0.80;;;20.60;78.00;;;;;;4969484;28;20479;-85
2022/07/19 04:43:06;;;;;;;3.25;0.82;;;20.70;78.10;;;;;;4953134;28;20043;-85
2022/07/19 04:45:32;;;;;;;1.65;0.80;;;20.70;78.40;;;;;;4948927;28;20034;-86
2022/07/19 04:47:58;;;;;;;1.60;0.65;;;20.80;77.50;;;;;;4953171;28;20050;-85
2022/07/19 04:50:23;;;;;;;3.00;1.08;;;20.90;77.70;;;;;;4954416;28;20037;-86
2022/07/19 04:52:49;;;;;;;5.65;0.98;;;20.90;77.60;;;;;;4952237;28;20026;-85
2022/07/19 04:55:15;;;;;;;1.40;0.70;;;21.00;77.20;;;;;;4971543;28;20023;-86
2022/07/19 04:57:40;;;;;;;1.52;0.57;;;21.10;77.90;;;;;;4970988;28;20555;-86
2022/07/19 05:00:09;;;;;;;1.85;0.80;;;21.10;77.80;;;;;;4969784;28;20027;-85
2022/07/19 05:02:36;;;;;;;2.88;0.98;;;21.20;77.00;;;;;;4953918;28;20034;-85
2022/07/19 05:05:02;;;;;;;2.47;0.80;;;21.30;76.80;;;;;;4970869;28;20035;-86
2022/07/19 05:07:28;;;;;;;2.20;0.85;;;21.30;76.60;;;;;;4971342;28;20030;-85
2022/07/19 05:10:09;;;;;;;1.33;0.77;;;21.30;76.30;;;;;;4987527;23;20046;-84
2022/07/19 05:13:38;;;;;;;1.60;0.65;;;21.20;75.80;;;;;;5007029;28;20022;-85
2022/07/19 05:16:27;;;;;;;1.83;0.93;;;21.50;76.00;;;;;;4994427;28;20564;-84
2022/07/19 05:19:20;;;;;;;1.20;0.60;;;22.00;76.90;;;;;;5007412;28;20030;-84
2022/07/19 05:22:25;;;;;;;1.13;0.60;;;21.30;76.10;;;;;;4987528;28;20029;-83
2022/07/19 05:24:52;;;;;;;1.83;0.60;;;21.90;76.50;;;;;;5008620;28;20025;-84
2022/07/19 05:27:18;;;;;;;2.22;0.80;;;21.90;75.90;;;;;;5010418;28;20037;-83
2022/07/19 05:29:44;;;;;;;2.28;0.80;;;22.00;75.80;;;;;;4989705;28;20117;-83
2022/07/19 05:32:09;;;;;;;2.03;0.63;;;22.00;75.80;;;;;;4990842;28;20173;-83
2022/07/19 05:34:35;;;;;;;1.95;0.98;;;22.20;75.90;;;;;;5009854;28;20541;-84
2022/07/19 05:37:00;;;;;;;1.98;0.63;;;22.30;75.10;;;;;;4992359;28;20446;-84
2022/07/19 05:39:26;;;;;;;2.08;0.80;;;22.40;74.10;;;;;;5010888;28;20022;-84
2022/07/19 05:41:52;;;;;;;1.58;0.70;;;22.40;74.10;;;;;;5011499;28;20777;-84
2022/07/19 05:44:18;;;;;;;1.90;0.80;;;22.50;74.10;;;;;;4993105;28;20380;-84
2022/07/19 05:46:44;;;;;;;1.45;0.68;;;22.60;73.70;;;;;;5009783;28;20022;-84
2022/07/19 05:49:11;;;;;;;1.40;0.65;;;22.80;74.70;;;;;;4992960;28;20025;-84
2022/07/19 05:51:37;;;;;;;0.93;0.50;;;22.90;74.10;;;;;;5006915;28;20036;-84
2022/07/19 05:54:04;;;;;;;2.72;0.60;;;23.00;74.00;;;;;;4993558;28;20037;-84
2022/07/19 05:56:30;;;;;;;1.67;0.85;;;23.00;73.30;;;;;;5011330;28;20025;-84
2022/07/19 05:58:56;;;;;;;2.03;0.68;;;23.10;74.10;;;;;;5009883;28;20052;-84
2022/07/19 06:01:22;;;;;;;1.58;0.50;;;23.20;74.10;;;;;;4992164;28;20339;-84
2022/07/19 06:03:51;;;;;;;2.30;0.80;;;23.20;73.40;;;;;;5009056;28;20061;-84
2022/07/19 06:06:17;;;;;;;1.35;0.75;;;23.30;73.10;;;;;;4986388;28;20037;-83
2022/07/19 06:08:47;;;;;;;1.40;0.68;;;23.20;72.20;;;;;;4992695;28;20030;-83
2022/07/19 06:11:15;;;;;;;4.63;1.08;;;23.20;73.30;;;;;;4991883;28;20034;-83
2022/07/19 06:13:41;;;;;;;0.98;0.60;;;23.20;73.40;;;;;;4993684;28;20042;-83
2022/07/19 06:16:07;;;;;;;1.58;0.68;;;23.20;73.40;;;;;;5009393;28;20029;-83
2022/07/19 06:18:34;;;;;;;2.20;0.73;;;23.30;74.00;;;;;;4991358;28;20494;-83
2022/07/19 06:21:04;;;;;;;1.90;0.57;;;23.30;72.60;;;;;;5008151;28;20055;-83
2022/07/19 06:23:30;;;;;;;4.80;0.70;;;23.30;72.10;;;;;;5004666;28;20029;-83
2022/07/19 06:25:56;;;;;;;1.30;0.55;;;23.50;72.40;;;;;;4987869;28;20034;-83
2022/07/19 06:28:22;;;;;;;1.58;0.60;;;23.60;71.60;;;;;;5007020;28;20064;-83
2022/07/19 06:30:47;;;;;;;1.60;0.60;;;23.70;71.10;;;;;;5010307;28;20074;-83
2022/07/19 06:33:13;;;;;;;2.47;0.80;;;23.50;72.60;;;;;;5009804;28;20105;-83
2022/07/19 06:35:40;;;;;;;1.35;0.50;;;23.20;72.50;;;;;;5010069;28;20033;-83
2022/07/19 06:38:06;;;;;;;2.00;0.80;;;23.20;72.80;;;;;;5009403;28;20026;-83
2022/07/19 06:40:35;;;;;;;2.97;0.70;;;23.10;73.60;;;;;;5008824;28;20049;-87
2022/07/19 06:43:00;;;;;;;2.08;0.73;;;23.20;73.00;;;;;;4993899;28;20032;-87
2022/07/19 06:45:26;;;;;;;2.22;0.77;;;23.40;73.50;;;;;;4994433;28;20112;-87
2022/07/19 06:47:51;;;;;;;2.63;0.98;;;23.70;72.90;;;;;;5012197;28;20026;-87
2022/07/19 06:50:21;;;;;;;2.22;0.80;;;23.90;72.20;;;;;;4990212;28;20023;-87
2022/07/19 06:52:50;;;;;;;1.45;0.50;;;24.10;71.80;;;;;;4996590;28;20076;-87
2022/07/19 06:55:15;;;;;;;2.90;0.70;;;24.40;70.70;;;;;;4994894;28;20398;-86
2022/07/19 06:57:41;;;;;;;1.35;0.55;;;24.60;69.20;;;;;;5002027;28;20546;-87
2022/07/19 07:00:15;;;;;;;1.65;0.55;;;24.70;70.10;;;;;;4987746;28;20034;-87
2022/07/19 07:02:53;;;;;;;1.20;0.63;;;24.90;70.50;;;;;;4990293;28;20038;-86
2022/07/19 07:05:34;;;;;;;0.73;0.30;;;25.00;68.20;;;;;;4993663;28;20025;-86
2022/07/19 07:08:13;;;;;;;1.92;0.65;;;25.10;67.70;;;;;;5001844;28;20092;-87
2022/07/19 07:11:03;;;;;;;1.30;0.57;;;25.20;69.40;;;;;;4987537;28;20033;-88
2022/07/19 07:13:49;;;;;;;2.53;0.77;;;25.60;69.00;;;;;;4997121;28;20026;-89
2022/07/19 07:16:46;;;;;;;1.95;0.65;;;26.20;67.60;;;;;;5011631;28;20033;-88
2022/07/19 07:22:39;;;;;;;1.30;0.50;;;26.00;66.90;;;;;;4930674;29;20044;-87
2022/07/19 07:25:26;;;;;;;5.43;0.60;;;26.20;67.80;;;;;;4931382;29;20032;-87
2022/07/19 07:28:12;;;;;;;1.70;0.60;;;26.20;69.40;;;;;;4987419;28;20056;-87
2022/07/19 07:30:45;;;;;;;2.05;0.52;;;26.30;65.90;;;;;;4991091;28;20064;-87
2022/07/19 07:33:45;;;;;;;1.55;0.60;;;26.40;67.10;;;;;;4993226;28;20076;-87
2022/07/19 07:39:45;;;;;;;0.82;0.40;;;26.70;65.10;;;;;;4978763;28;20739;-88
2022/07/19 07:42:41;;;;;;;;;;;;;;;;;;;;;
2022/07/19 07:45:53;;;;;;;;;;;;;;;;;;;;;
2022/07/19 07:48:54;;;;;;;1.60;0.70;;;27.30;63.60;;;;;;4983916;28;20517;-88
2022/07/19 07:51:32;;;;;;;1.73;0.60;;;27.60;63.10;;;;;;4991994;28;20568;-86
2022/07/19 07:54:14;;;;;;;1.42;0.70;;;27.90;64.00;;;;;;4992069;28;20720;-87
2022/07/19 07:57:17;;;;;;;1.80;0.57;;;28.10;63.70;;;;;;4982334;28;20034;-87
2022/07/19 07:59:51;;;;;;;1.40;0.50;;;28.40;61.90;;;;;;4983973;28;20026;-87
2022/07/19 08:02:41;;;;;;;1.38;0.50;;;28.50;60.20;;;;;;4992975;28;20036;-87
2022/07/19 08:05:31;;;;;;;0.90;0.47;;;28.50;60.80;;;;;;5008339;28;20030;-87
2022/07/19 08:08:38;;;;;;;1.23;0.60;;;28.70;62.90;;;;;;4995174;28;20069;-88
2022/07/19 08:11:50;;;;;;;1.38;0.50;;;28.80;62.20;;;;;;5007896;28;20034;-89
2022/07/19 08:14:25;;;;;;;1.80;0.60;;;28.90;60.90;;;;;;4975838;28;20068;-87
2022/07/19 08:16:58;;;;;;;1.02;0.60;;;29.10;60.20;;;;;;4999717;28;20026;-88
2022/07/19 08:19:42;;;;;;;1.45;0.43;;;29.20;59.90;;;;;;5017308;28;20088;-88
2022/07/19 08:25:16;;;;;;;1.50;0.50;;;29.70;59.30;;;;;;5008052;28;20084;-88
2022/07/19 08:31:52;;;;;;;1.25;0.50;;;29.90;58.90;;;;;;4954527;28;20032;-88
2022/07/19 08:37:45;;;;;;;0.98;0.40;;;30.20;57.90;;;;;;4965090;28;20531;-87
2022/07/19 08:40:56;;;;;;;0.60;0.38;;;30.40;57.90;;;;;;4999801;28;20048;-88
2022/07/19 08:44:08;;;;;;;1.40;0.43;;;30.60;56.80;;;;;;4916296;29;20044;-87
2022/07/19 08:47:26;;;;;;;;;;;;;;;;;;;;;
2022/07/19 08:53:07;;;;;;;0.85;0.40;;;31.10;55.60;;;;;;5013035;28;20124;-88
2022/07/19 08:55:52;;;;;;;1.40;0.65;;;31.00;55.30;;;;;;4998872;28;20050;-88
2022/07/19 08:58:41;;;;;;;0.80;0.40;;;30.90;55.00;;;;;;4994643;28;20034;-87
2022/07/19 09:01:43;;;;;;;1.02;0.50;;;30.40;54.90;;;;;;4998809;28;20121;-89
2022/07/19 09:04:42;;;;;;;1.08;0.40;;;31.20;55.20;;;;;;5011559;28;20022;-87
2022/07/19 09:14:25;;;;;;;1.08;0.38;;;31.10;55.60;;;;;;5010770;28;20036;-88
2022/07/19 09:17:28;;;;;;;0.85;0.28;;;31.10;55.90;;;;;;4994919;28;20042;-88
2022/07/19 09:20:37;;;;;;;1.48;0.50;;;31.50;55.10;;;;;;4992363;28;20065;-88
2022/07/19 09:23:41;;;;;;;1.33;0.65;;;31.50;54.90;;;;;;4995611;28;20034;-87
2022/07/19 09:30:02;;;;;;;1.08;0.40;;;31.70;53.40;;;;;;4950488;28;20023;-89
2022/07/19 09:32:50;;;;;;;1.42;0.60;;;32.20;52.50;;;;;;4913338;29;20052;-88
2022/07/19 09:35:41;;;;;;;1.73;0.45;;;31.10;52.30;;;;;;4985952;28;20121;-88
2022/07/19 09:38:42;;;;;;;1.83;0.50;;;32.30;52.30;;;;;;4921605;28;20090;-85
2022/07/19 09:41:42;;;;;;;1.55;0.40;;;32.20;50.80;;;;;;4988856;28;20029;-88
2022/07/19 09:44:38;;;;;;;0.95;0.30;;;32.40;50.20;;;;;;4989856;28;20029;-86
2022/07/19 09:47:18;;;;;;;0.95;0.45;;;32.00;50.40;;;;;;5010596;28;20017;-86
2022/07/19 09:50:18;;;;;;;1.55;0.50;;;32.20;50.70;;;;;;4988038;28;20025;-88
2022/07/19 09:52:59;;;;;;;1.83;0.98;;;32.90;52.50;;;;;;4987291;28;20037;-87
2022/07/19 09:55:56;;;;;;;0.85;0.40;;;32.70;50.10;;;;;;4993293;28;20116;-87
2022/07/19 09:58:58;;;;;;;1.98;0.50;;;32.70;49.60;;;;;;4988263;28;20123;-87
2022/07/19 10:02:10;;;;;;;1.63;0.73;;;32.70;49.80;;;;;;4985371;28;20035;-88
2022/07/19 10:05:02;;;;;;;1.42;0.50;;;32.60;49.10;;;;;;4966738;28;20042;-88
2022/07/19 10:08:00;;;;;;;0.80;0.40;;;32.90;49.60;;;;;;4973459;28;20034;-88
2022/07/19 10:13:52;;;;;;;1.77;0.90;;;33.30;49.60;;;;;;4984603;28;20117;-88
2022/07/19 10:17:19;;;;;;;1.42;0.55;;;33.60;49.30;;;;;;4962241;28;20113;-88
2022/07/19 10:20:27;;;;;;;1.50;0.50;;;33.80;49.60;;;;;;4994274;28;20034;-86
2022/07/19 10:23:16;;;;;;;1.35;0.70;;;33.90;49.10;;;;;;4993619;28;20103;-86
2022/07/19 10:26:11;;;;;;;1.35;0.50;;;34.20;48.50;;;;;;4995426;28;20079;-87
2022/07/19 10:28:42;;;;;;;1.83;0.75;;;34.20;48.50;;;;;;5007881;28;20049;-87
2022/07/19 10:32:00;;;;;;;1.67;0.50;;;34.20;48.30;;;;;;5010023;28;20091;-86
2022/07/19 10:38:01;;;;;;;1.33;0.50;;;34.00;48.80;;;;;;4926632;29;20094;-88
2022/07/19 10:40:50;;;;;;;0.88;0.40;;;34.40;47.40;;;;;;4932371;29;20111;-88
2022/07/19 10:43:56;;;;;;;1.85;0.70;;;34.70;47.70;;;;;;4989072;28;20026;-87
2022/07/19 10:46:31;;;;;;;0.88;0.45;;;34.60;47.50;;;;;;4991638;28;20037;-87
2022/07/19 10:48:59;;;;;;;1.65;0.70;;;34.80;48.40;;;;;;4993311;28;20129;-87
2022/07/19 10:52:00;;;;;;;1.52;0.40;;;35.10;47.90;;;;;;4996059;28;20022;-86
2022/07/19 10:54:54;;;;;;;0.85;0.50;;;35.20;47.00;;;;;;4980496;28;20037;-87
2022/07/19 10:57:37;;;;;;;1.45;0.70;;;35.10;47.30;;;;;;5009525;28;20041;-87
2022/07/19 11:00:59;;;;;;;2.08;0.85;;;35.20;47.50;;;;;;4993407;28;20026;-86
2022/07/19 11:04:12;;;;;;;2.00;0.77;;;35.10;47.00;;;;;;4934398;29;20047;-86
2022/07/19 11:06:38;;;;;;;1.77;0.52;;;35.40;47.40;;;;;;4946162;28;20036;-87
2022/07/19 11:09:14;;;;;;;2.83;0.65;;;35.50;47.60;;;;;;5002868;28;20045;-88
2022/07/19 11:11:56;;;;;;;0.98;0.40;;;35.80;46.90;;;;;;5008366;28;20042;-88
2022/07/19 11:14:24;;;;;;;1.52;0.60;;;35.90;46.40;;;;;;4997943;28;20506;-88
2022/07/19 11:17:04;;;;;;;1.73;0.60;;;35.90;47.50;;;;;;4989806;28;20462;-88
2022/07/19 11:19:33;;;;;;;1.88;0.60;;;35.70;46.00;;;;;;4977410;28;20042;-89
2022/07/19 11:22:00;;;;;;;2.00;0.60;;;35.70;46.40;;;;;;5010992;28;20033;-88
2022/07/19 11:24:26;;;;;;;3.40;1.02;;;36.40;47.10;;;;;;4988376;28;20042;-88
2022/07/19 11:26:52;;;;;;;1.88;0.85;;;35.60;47.40;;;;;;5010957;28;20041;-88
2022/07/19 11:29:18;;;;;;;1.40;0.60;;;36.10;47.20;;;;;;4998687;28;20390;-89
2022/07/19 11:31:47;;;;;;;1.25;0.60;;;36.10;46.40;;;;;;5015983;28;20481;-88
2022/07/19 11:34:13;;;;;;;2.03;0.70;;;36.20;46.70;;;;;;4996301;28;20110;-89
2022/07/19 11:36:41;;;;;;;2.47;0.60;;;36.10;45.90;;;;;;4997431;28;20054;-88
2022/07/19 11:39:07;;;;;;;2.15;0.52;;;36.60;46.30;;;;;;4998261;28;20045;-88
2022/07/19 11:41:33;;;;;;;1.65;0.75;;;36.70;46.10;;;;;;4997812;28;20030;-89
2022/07/19 11:44:05;;;;;;;0.63;0.35;;;36.80;46.10;;;;;;4997740;28;20405;-89
2022/07/19 11:46:45;;;;;;;1.48;0.55;;;37.20;45.50;;;;;;4999742;28;20026;-89
2022/07/19 11:49:13;;;;;;;1.53;0.60;;;37.10;45.40;;;;;;4998051;28;20018;-88
2022/07/19 11:51:44;;;;;;;2.03;0.82;;;36.40;45.90;;;;;;5020613;28;20092;-88
2022/07/19 11:57:34;;;;;;;1.98;0.70;;;36.60;45.60;;;;;;5017302;28;20926;-87
2022/07/19 12:00:00;;;;;;;0.98;0.40;;;36.80;46.20;;;;;;4982617;28;20042;-88
2022/07/19 12:02:25;;;;;;;1.42;0.60;;;36.80;45.30;;;;;;5001271;28;20049;-87
2022/07/19 12:04:51;;;;;;;1.00;0.57;;;36.60;45.40;;;;;;5011793;28;20022;-88
2022/07/19 12:07:20;;;;;;;0.93;0.55;;;37.00;45.70;;;;;;5002940;28;20069;-88
2022/07/19 12:09:46;;;;;;;1.87;0.50;;;37.20;45.60;;;;;;5001093;28;20021;-87
2022/07/19 12:12:17;;;;;;;0.93;0.43;;;37.50;44.60;;;;;;5014715;28;20164;-87
2022/07/19 12:14:43;;;;;;;1.52;0.85;;;37.50;45.40;;;;;;4990455;28;20034;-87
2022/07/19 12:17:15;;;;;;;2.20;0.70;;;37.60;45.30;;;;;;5012658;28;20026;-87
2022/07/19 12:20:08;;;;;;;2.42;1.15;;;37.70;44.80;;;;;;4994561;28;20030;-87
2022/07/19 12:22:34;;;;;;;1.38;0.65;;;37.90;44.10;;;;;;5002120;28;20104;-87
2022/07/19 12:25:00;;;;;;;2.20;0.90;;;38.10;45.50;;;;;;5013641;28;20026;-87
2022/07/19 12:27:27;;;;;;;1.77;0.70;;;38.20;44.90;;;;;;4996077;28;20034;-86
2022/07/19 12:29:55;;;;;;;2.55;0.75;;;37.90;45.30;;;;;;5013565;28;20502;-87
2022/07/19 12:32:30;;;;;;;1.35;0.65;;;38.00;44.90;;;;;;5006416;28;20025;-88
2022/07/19 12:34:58;;;;;;;1.20;0.50;;;38.20;44.50;;;;;;4993234;28;20041;-87
2022/07/19 12:37:29;;;;;;;1.80;0.85;;;38.40;46.00;;;;;;5012858;28;20149;-87
2022/07/19 12:40:05;;;;;;;1.25;0.55;;;38.70;45.30;;;;;;4994740;28;20034;-87
2022/07/19 12:43:03;;;;;;;1.42;0.65;;;38.80;45.40;;;;;;5013635;28;20010;-87
2022/07/19 12:45:39;;;;;;;1.55;0.63;;;39.00;44.50;;;;;;5012145;28;20022;-87
2022/07/19 12:48:05;;;;;;;2.78;0.80;;;39.10;44.70;;;;;;5010694;28;20438;-87
2022/07/19 12:50:37;;;;;;;1.73;0.60;;;39.30;45.00;;;;;;4993009;28;20025;-86
2022/07/19 12:53:07;;;;;;;1.45;0.70;;;39.10;44.70;;;;;;5012633;28;20056;-86
2022/07/19 12:55:35;;;;;;;1.48;0.60;;;38.80;45.20;;;;;;4992573;28;20022;-89
2022/07/19 12:58:02;;;;;;;1.92;0.60;;;39.20;44.60;;;;;;4997048;28;20079;-88
2022/07/19 13:00:30;;;;;;;2.05;0.80;;;39.40;44.40;;;;;;4997766;28;20031;-88
2022/07/19 13:02:58;;;;;;;1.52;0.63;;;39.30;44.70;;;;;;4993930;28;20113;-89
2022/07/19 13:05:26;;;;;;;2.35;0.65;;;39.20;44.00;;;;;;4991988;28;20073;-88
2022/07/19 13:07:52;;;;;;;1.27;0.50;;;39.30;44.30;;;;;;4992772;28;20116;-87
2022/07/19 13:10:18;;;;;;;1.80;0.75;;;39.00;43.60;;;;;;5007327;28;20071;-88
2022/07/19 13:12:54;;;;;;;2.22;0.50;;;39.10;43.90;;;;;;5010928;28;20033;-89
2022/07/19 13:15:19;;;;;;;1.50;0.70;;;39.20;44.40;;;;;;4994873;28;20018;-87
2022/07/19 13:17:46;;;;;;;1.58;0.70;;;39.20;44.10;;;;;;5013941;28;20057;-87
2022/07/19 13:20:13;;;;;;;2.88;0.80;;;39.20;44.10;;;;;;4995672;28;20080;-87
2022/07/19 13:22:43;;;;;;;2.33;0.80;;;39.20;43.70;;;;;;4995546;28;20153;-88
2022/07/19 13:25:12;;;;;;;1.30;0.63;;;39.50;44.10;;;;;;5007377;28;20030;-89
2022/07/19 13:27:38;;;;;;;1.45;0.52;;;39.70;44.00;;;;;;4989831;28;20061;-88
2022/07/19 13:30:05;;;;;;;1.50;0.60;;;39.90;43.80;;;;;;5007277;28;20050;-89
2022/07/19 13:32:30;;;;;;;1.50;0.50;;;40.20;43.30;;;;;;4988564;28;20028;-88
2022/07/19 13:34:59;;;;;;;1.58;0.60;;;40.20;42.60;;;;;;4991230;28;20113;-89
2022/07/19 13:37:24;;;;;;;1.48;0.60;;;40.30;43.30;;;;;;4991080;28;20401;-89
2022/07/19 13:39:55;;;;;;;0.88;0.50;;;40.30;43.00;;;;;;4990172;28;20121;-88
2022/07/19 13:42:21;;;;;;;1.00;0.60;;;40.40;42.90;;;;;;5012091;28;20517;-86
2022/07/19 13:44:47;;;;;;;2.13;0.70;;;40.30;42.60;;;;;;5008536;28;20184;-87
2022/07/19 13:47:15;;;;;;;3.20;1.02;;;40.50;41.90;;;;;;4995213;28;20029;-87
2022/07/19 13:49:41;;;;;;;2.72;0.60;;;40.80;42.50;;;;;;5007993;28;20386;-89
2022/07/19 13:52:06;;;;;;;2.08;0.55;;;40.60;41.80;;;;;;5013733;28;20048;-89
2022/07/19 13:54:32;;;;;;;3.60;1.10;;;40.10;43.10;;;;;;4996424;28;20113;-88
2022/07/19 13:56:58;;;;;;;1.50;0.68;;;39.70;42.20;;;;;;4994913;28;20120;-89
2022/07/19 13:59:24;;;;;;;1.08;0.40;;;40.20;42.60;;;;;;4995009;28;20030;-89
2022/07/19 14:01:50;;;;;;;1.35;0.50;;;40.20;42.40;;;;;;4997192;28;20040;-88
2022/07/19 14:04:15;;;;;;;1.35;0.60;;;40.30;41.60;;;;;;4996518;28;20107;-88
2022/07/19 14:06:41;;;;;;;0.90;0.50;;;40.30;42.70;;;;;;4997917;28;20095;-88